Time;durP1;ratioP1;P1;durP2;ratioP2;P2;SDS_P1;SDS_P2;PMS_P1;PMS_P2;Temp;Humidity;BMP_temperature;BMP_pressure;BME280_temperature;BME280_humidity;BME280_pressure;Samples;Min_cycle;Max_cycle;Signal;HPM_P1;HPM_P2
2021/12/19 00:09:01;;;;;;;19.63;6.97;;;9.20;99.90;;;;;;5136389;27;20105;-87
2021/12/19 00:11:27;;;;;;;15.10;6.22;;;9.30;99.90;;;;;;5119062;27;20046;-87
2021/12/19 00:13:53;;;;;;;20.63;7.72;;;9.30;99.90;;;;;;5119186;27;20054;-88
2021/12/19 00:16:20;;;;;;;12.93;6.65;;;9.30;99.90;;;;;;5118838;27;20039;-86
2021/12/19 00:18:47;;;;;;;19.42;7.45;;;9.30;99.90;;;;;;5153501;27;20070;-87
2021/12/19 00:21:17;;;;;;;22.92;8.18;;;9.20;99.90;;;;;;5118266;27;20054;-87
2021/12/19 00:23:44;;;;;;;17.00;7.60;;;9.50;99.90;;;;;;5136161;27;20083;-87
2021/12/19 00:26:11;;;;;;;25.90;9.45;;;9.40;99.90;;;;;;5135879;27;20382;-86
2021/12/19 00:28:39;;;;;;;24.67;9.30;;;9.50;99.90;;;;;;5118029;27;20490;-87
2021/12/19 00:31:06;;;;;;;22.98;8.40;;;9.50;99.90;;;;;;5118720;27;20057;-87
2021/12/19 00:33:32;;;;;;;25.08;9.80;;;9.40;99.90;;;;;;5118517;27;20086;-86
2021/12/19 00:35:58;;;;;;;27.52;10.68;;;9.40;99.90;;;;;;5118608;27;20101;-87
2021/12/19 00:38:24;;;;;;;24.50;9.50;;;9.40;99.90;;;;;;5118450;27;20058;-87
2021/12/19 00:40:50;;;;;;;26.85;9.35;;;9.40;99.90;;;;;;5118454;27;20051;-87
2021/12/19 00:43:35;;;;;;;20.60;8.57;;;9.30;99.90;;;;;;5118737;27;20082;-87
2021/12/19 00:46:07;;;;;;;19.20;7.90;;;9.20;99.90;;;;;;5136045;27;20046;-87
2021/12/19 00:48:35;;;;;;;12.73;6.20;;;9.00;99.90;;;;;;5118448;27;20414;-86
2021/12/19 00:51:01;;;;;;;16.88;6.05;;;9.00;99.90;;;;;;5152383;27;20059;-87
2021/12/19 00:53:27;;;;;;;16.13;5.68;;;9.00;99.90;;;;;;5135492;27;20042;-86
2021/12/19 00:55:53;;;;;;;15.20;3.83;;;9.00;99.90;;;;;;5134396;27;20478;-86
2021/12/19 00:58:19;;;;;;;8.50;3.22;;;9.00;99.90;;;;;;5118223;27;20562;-87
2021/12/19 01:00:44;;;;;;;6.80;2.30;;;9.00;99.90;;;;;;5118322;27;20043;-87
2021/12/19 01:03:10;;;;;;;4.40;1.95;;;8.90;99.90;;;;;;5135238;27;20486;-86
2021/12/19 01:05:38;;;;;;;6.85;1.85;;;8.90;99.90;;;;;;5135571;27;20046;-87
2021/12/19 01:08:05;;;;;;;5.93;2.20;;;8.90;99.90;;;;;;5117821;27;20081;-87
2021/12/19 01:10:32;;;;;;;10.50;2.20;;;9.10;99.90;;;;;;5117825;27;20054;-86
2021/12/19 01:12:58;;;;;;;5.32;1.50;;;9.10;99.90;;;;;;5100903;27;20053;-87
2021/12/19 01:15:24;;;;;;;8.23;2.00;;;9.10;99.90;;;;;;5100888;27;20093;-87
2021/12/19 01:17:50;;;;;;;6.80;2.03;;;9.20;99.90;;;;;;5117696;27;20124;-86
2021/12/19 01:20:21;;;;;;;5.13;1.55;;;9.20;99.90;;;;;;5117312;27;20043;-86
2021/12/19 01:22:50;;;;;;;9.27;2.30;;;9.10;99.90;;;;;;5118250;27;20054;-86
2021/12/19 01:25:16;;;;;;;3.80;1.50;;;9.10;99.90;;;;;;5118025;27;20043;-86
2021/12/19 01:27:42;;;;;;;5.82;1.55;;;9.00;99.90;;;;;;5134614;27;20441;-87
2021/12/19 01:30:10;;;;;;;2.55;1.10;;;9.00;99.90;;;;;;5117544;27;20533;-86
2021/12/19 01:32:37;;;;;;;7.30;1.20;;;9.00;99.90;;;;;;5117724;27;20042;-87
2021/12/19 01:35:03;;;;;;;6.40;1.17;;;8.90;99.90;;;;;;5134420;27;20051;-87
2021/12/19 01:37:29;;;;;;;2.70;0.93;;;8.80;99.90;;;;;;5134463;27;20079;-86
2021/12/19 01:39:55;;;;;;;4.22;0.88;;;8.80;99.90;;;;;;5100547;27;20051;-86
2021/12/19 01:42:20;;;;;;;4.65;0.95;;;8.70;99.90;;;;;;5117196;27;20066;-86
2021/12/19 01:44:47;;;;;;;3.45;0.88;;;8.80;99.90;;;;;;5134546;27;20371;-87
2021/12/19 01:47:14;;;;;;;3.88;1.20;;;8.70;99.90;;;;;;5116885;27;20049;-87
2021/12/19 01:49:43;;;;;;;3.70;1.45;;;8.80;99.90;;;;;;5116381;27;20512;-87
2021/12/19 01:52:09;;;;;;;3.72;1.70;;;8.80;99.90;;;;;;5117142;27;20128;-87
2021/12/19 01:54:35;;;;;;;6.00;1.75;;;8.80;99.90;;;;;;5116839;27;20138;-87
2021/12/19 01:57:00;;;;;;;2.92;1.17;;;8.90;99.90;;;;;;5134648;27;20047;-86
2021/12/19 01:59:26;;;;;;;6.25;1.50;;;8.90;99.90;;;;;;5134927;27;20095;-87
2021/12/19 02:01:55;;;;;;;7.38;1.55;;;8.90;99.90;;;;;;5117687;27;20047;-87
2021/12/19 02:04:23;;;;;;;6.00;1.85;;;8.90;99.90;;;;;;5134215;27;20398;-87
2021/12/19 02:06:49;;;;;;;5.18;1.58;;;8.80;99.90;;;;;;5133889;27;20043;-87
2021/12/19 02:09:17;;;;;;;5.70;1.55;;;8.80;99.90;;;;;;5134134;27;20047;-87
2021/12/19 02:11:43;;;;;;;8.07;1.85;;;8.70;99.90;;;;;;5133725;27;20039;-87
2021/12/19 02:14:10;;;;;;;3.70;1.30;;;8.60;99.90;;;;;;5116632;27;20431;-87
2021/12/19 02:16:39;;;;;;;4.65;1.50;;;8.70;99.90;;;;;;5116807;27;20573;-86
2021/12/19 02:19:07;;;;;;;4.78;1.70;;;8.60;99.90;;;;;;5116757;27;20138;-86
2021/12/19 02:21:37;;;;;;;4.78;1.67;;;8.70;99.90;;;;;;5133361;27;20496;-86
2021/12/19 02:24:09;;;;;;;7.93;2.30;;;8.80;99.90;;;;;;5116755;28;20405;-86
2021/12/19 02:26:36;;;;;;;5.28;2.17;;;8.80;99.90;;;;;;5116427;27;20060;-87
2021/12/19 02:29:03;;;;;;;8.93;2.65;;;8.80;99.90;;;;;;5116215;27;20053;-87
2021/12/19 02:31:30;;;;;;;6.18;2.15;;;8.90;99.90;;;;;;5116094;27;20498;-87
2021/12/19 02:34:05;;;;;;;4.18;2.42;;;9.00;99.90;;;;;;5117404;27;20062;-86
2021/12/19 02:39:45;;;;;;;9.98;2.85;;;9.00;99.90;;;;;;5117580;28;20047;-87
2021/12/19 02:50:26;;;;;;;6.43;1.30;;;8.70;99.90;;;;;;5118739;28;20128;-86
2021/12/19 02:52:53;;;;;;;3.55;1.58;;;8.50;99.90;;;;;;5116273;28;20075;-87
2021/12/19 02:55:19;;;;;;;7.93;2.08;;;8.50;99.90;;;;;;5099486;28;20050;-86
2021/12/19 02:57:49;;;;;;;6.25;2.35;;;8.50;99.90;;;;;;5116306;28;20055;-86
2021/12/19 03:00:23;;;;;;;5.75;2.17;;;8.40;99.90;;;;;;5116328;28;20054;-86
2021/12/19 03:02:49;;;;;;;9.95;2.05;;;8.40;99.90;;;;;;5132737;27;20039;-86
2021/12/19 03:05:16;;;;;;;6.15;1.80;;;8.40;99.90;;;;;;5115649;27;20035;-86
2021/12/19 03:07:43;;;;;;;5.78;1.67;;;8.30;99.90;;;;;;5133179;28;20104;-86
2021/12/19 03:13:47;;;;;;;6.38;1.60;;;8.10;99.90;;;;;;5118623;28;20043;-87
2021/12/19 03:18:58;;;;;;;6.30;1.17;;;8.20;99.90;;;;;;5119561;27;20156;-86
2021/12/19 03:21:26;;;;;;;8.23;1.48;;;8.20;99.90;;;;;;5136535;27;20409;-87
2021/12/19 03:23:52;;;;;;;6.25;1.60;;;8.30;99.90;;;;;;5137712;27;20133;-86
2021/12/19 03:26:18;;;;;;;4.63;1.50;;;8.20;99.90;;;;;;5119713;27;20500;-87
2021/12/19 03:28:45;;;;;;;3.92;0.80;;;8.20;99.90;;;;;;5153960;27;20494;-86
2021/12/19 03:31:11;;;;;;;4.30;0.60;;;8.10;99.90;;;;;;5120024;27;20107;-87
2021/12/19 03:33:38;;;;;;;2.50;0.47;;;8.10;99.90;;;;;;5137264;27;20112;-87
2021/12/19 03:36:06;;;;;;;2.65;0.55;;;8.20;99.90;;;;;;5119614;27;20081;-87
2021/12/19 03:38:37;;;;;;;2.80;1.17;;;8.20;99.90;;;;;;5119940;27;20462;-87
2021/12/19 03:41:17;;;;;;;5.35;1.20;;;8.40;99.90;;;;;;5119812;27;20058;-86
2021/12/19 03:43:46;;;;;;;5.22;1.40;;;8.40;99.90;;;;;;5120155;27;20047;-87
2021/12/19 03:46:12;;;;;;;2.40;1.13;;;8.60;99.90;;;;;;5118790;27;20043;-87
2021/12/19 03:48:37;;;;;;;5.15;1.50;;;8.50;99.90;;;;;;5119207;27;20082;-87
2021/12/19 03:51:03;;;;;;;9.93;1.98;;;8.60;99.90;;;;;;5119461;27;20086;-86
2021/12/19 03:53:29;;;;;;;7.82;1.75;;;8.60;99.90;;;;;;5119279;27;20122;-86
2021/12/19 03:55:55;;;;;;;10.45;2.25;;;8.60;99.90;;;;;;5119551;27;20057;-86
2021/12/19 03:58:21;;;;;;;8.02;1.88;;;8.60;99.90;;;;;;5119236;27;20039;-86
2021/12/19 04:00:48;;;;;;;10.13;3.22;;;8.50;99.90;;;;;;5136265;27;20082;-87
2021/12/19 04:03:21;;;;;;;8.85;2.03;;;8.60;99.90;;;;;;5101985;27;20047;-86
2021/12/19 04:05:51;;;;;;;6.78;1.67;;;8.50;99.90;;;;;;5119624;27;20050;-87
2021/12/19 04:08:18;;;;;;;9.88;2.60;;;8.60;99.90;;;;;;5119391;27;20047;-87
2021/12/19 04:10:46;;;;;;;9.32;2.58;;;8.60;99.90;;;;;;5119231;27;20057;-86
2021/12/19 04:13:13;;;;;;;11.30;3.25;;;8.60;99.90;;;;;;5119198;27;20047;-87
2021/12/19 04:15:38;;;;;;;16.98;3.58;;;8.40;99.90;;;;;;5118893;27;20058;-86
2021/12/19 04:18:04;;;;;;;11.65;3.65;;;8.40;99.90;;;;;;5119155;27;20039;-86
2021/12/19 04:20:30;;;;;;;14.35;5.15;;;8.40;99.90;;;;;;5135707;27;20043;-85
2021/12/19 04:22:56;;;;;;;14.48;3.90;;;8.40;99.90;;;;;;5135967;27;20047;-85
2021/12/19 04:25:22;;;;;;;16.65;4.50;;;8.40;99.90;;;;;;5120175;27;20451;-86
2021/12/19 04:27:48;;;;;;;15.02;3.83;;;8.40;99.90;;;;;;5120603;27;20130;-86
2021/12/19 04:30:21;;;;;;;16.42;4.10;;;8.50;99.90;;;;;;5137294;27;20043;-86
2021/12/19 04:32:58;;;;;;;11.27;4.22;;;8.40;99.90;;;;;;5136307;27;20047;-86
2021/12/19 04:35:31;;;;;;;28.83;5.32;;;8.60;99.90;;;;;;5136449;27;20039;-86
2021/12/19 04:51:49;;;;;;;19.67;5.90;;;8.60;99.90;;;;;;5120444;27;20062;-86
2021/12/19 04:57:02;;;;;;;22.83;5.82;;;8.50;99.90;;;;;;5134690;27;20043;-86
2021/12/19 05:03:25;;;;;;;22.33;5.88;;;8.50;99.90;;;;;;5135762;27;20073;-86
2021/12/19 05:15:50;;;;;;;24.23;6.07;;;9.00;99.90;;;;;;5135202;27;20134;-86
2021/12/19 05:18:16;;;;;;;30.17;6.50;;;8.90;99.90;;;;;;5118044;27;20447;-86
2021/12/19 05:20:52;;;;;;;29.55;6.35;;;8.90;99.90;;;;;;5100616;27;20447;-86
2021/12/19 05:23:25;;;;;;;31.15;6.70;;;8.90;99.90;;;;;;5103594;27;20054;-86
2021/12/19 05:25:52;;;;;;;21.83;6.35;;;8.90;99.90;;;;;;5117550;27;20090;-86
2021/12/19 05:28:18;;;;;;;22.60;6.47;;;8.70;99.90;;;;;;5169473;27;20039;-86
2021/12/19 05:30:46;;;;;;;29.25;6.63;;;8.70;99.90;;;;;;5134024;27;20054;-86
2021/12/19 05:33:12;;;;;;;25.77;7.47;;;8.70;99.90;;;;;;5117436;27;20138;-85
2021/12/19 05:46:34;;;;;;;32.65;7.78;;;8.70;99.90;;;;;;5132736;27;20043;-88
2021/12/19 05:49:01;;;;;;;18.85;6.82;;;8.80;99.90;;;;;;5161835;27;20119;-87
2021/12/19 05:51:27;;;;;;;22.65;5.93;;;8.70;99.90;;;;;;5099618;27;20051;-87
2021/12/19 05:53:53;;;;;;;17.70;5.97;;;8.70;99.90;;;;;;5117220;27;20480;-85
2021/12/19 05:56:18;;;;;;;24.63;6.72;;;8.60;99.90;;;;;;5134317;27;20513;-86
2021/12/19 05:58:44;;;;;;;23.17;5.95;;;8.60;99.90;;;;;;5133991;27;20039;-85
2021/12/19 06:01:10;;;;;;;21.98;6.13;;;8.60;99.90;;;;;;5116938;27;20050;-86
2021/12/19 06:03:36;;;;;;;23.35;7.22;;;8.60;99.90;;;;;;5133864;27;20050;-86
2021/12/19 06:06:02;;;;;;;18.73;6.25;;;8.70;99.90;;;;;;5116590;27;20047;-86
2021/12/19 06:08:28;;;;;;;26.08;6.85;;;8.70;99.90;;;;;;5133804;27;20039;-87
2021/12/19 06:10:53;;;;;;;18.42;5.80;;;8.70;99.90;;;;;;5117058;27;20043;-85
2021/12/19 06:13:19;;;;;;;36.20;7.22;;;8.70;99.90;;;;;;5168628;27;20058;-86
2021/12/19 06:15:49;;;;;;;31.52;6.63;;;8.70;99.90;;;;;;5116469;27;20047;-87
2021/12/19 06:18:15;;;;;;;23.05;6.05;;;8.90;99.90;;;;;;5133359;27;20436;-86
2021/12/19 06:20:41;;;;;;;23.67;6.40;;;8.60;99.90;;;;;;5116061;27;20058;-86
2021/12/19 06:23:08;;;;;;;21.65;6.10;;;8.60;99.90;;;;;;5116761;27;20039;-86
2021/12/19 06:25:34;;;;;;;22.85;5.50;;;8.70;99.90;;;;;;5116861;27;20107;-86
2021/12/19 06:28:00;;;;;;;24.90;5.53;;;8.80;99.90;;;;;;5116412;27;20035;-86
2021/12/19 06:30:27;;;;;;;30.70;6.63;;;8.80;99.90;;;;;;5116632;28;20043;-87
2021/12/19 06:32:53;;;;;;;17.15;5.63;;;8.80;99.90;;;;;;5133501;27;20104;-85
2021/12/19 06:35:21;;;;;;;21.90;6.13;;;8.70;99.90;;;;;;5116342;27;20461;-85
2021/12/19 06:37:49;;;;;;;22.20;5.95;;;8.80;99.90;;;;;;5099921;28;20371;-86
2021/12/19 06:40:17;;;;;;;24.50;6.47;;;8.90;99.90;;;;;;5116353;28;20095;-86
2021/12/19 06:42:43;;;;;;;33.22;6.57;;;8.90;99.90;;;;;;5116485;28;20047;-86
2021/12/19 06:45:10;;;;;;;20.02;5.85;;;8.90;99.90;;;;;;5116286;28;20052;-86
2021/12/19 06:47:39;;;;;;;24.25;5.78;;;8.80;99.90;;;;;;5133501;27;20495;-86
2021/12/19 06:50:06;;;;;;;20.65;4.68;;;8.80;99.90;;;;;;5132806;27;20106;-86
2021/12/19 06:52:32;;;;;;;21.60;5.13;;;8.80;99.90;;;;;;5133255;27;20568;-86
2021/12/19 06:54:58;;;;;;;18.27;4.88;;;8.70;99.90;;;;;;5136447;27;20047;-87
2021/12/19 06:57:24;;;;;;;20.50;4.38;;;8.80;99.90;;;;;;5120480;27;20497;-86
2021/12/19 06:59:49;;;;;;;21.50;4.30;;;8.90;99.90;;;;;;5137666;27;20039;-86
2021/12/19 07:02:16;;;;;;;20.33;4.20;;;8.80;99.90;;;;;;5103156;27;20514;-86
2021/12/19 07:04:45;;;;;;;15.63;4.35;;;8.90;99.90;;;;;;5137981;27;20502;-86
2021/12/19 07:07:12;;;;;;;22.17;4.15;;;8.90;99.90;;;;;;5120098;27;20397;-86
2021/12/19 07:09:38;;;;;;;26.13;4.35;;;9.00;99.90;;;;;;5137421;27;20390;-87
2021/12/19 07:12:06;;;;;;;24.17;4.07;;;9.10;99.90;;;;;;5137157;27;20393;-86
2021/12/19 07:14:32;;;;;;;21.55;4.07;;;9.10;99.90;;;;;;5154609;27;20091;-85
2021/12/19 07:16:58;;;;;;;22.33;3.80;;;9.00;99.90;;;;;;5119975;27;20496;-86
2021/12/19 07:19:24;;;;;;;16.25;3.55;;;8.90;99.90;;;;;;5120504;27;20047;-86
2021/12/19 07:21:50;;;;;;;24.10;4.25;;;9.00;99.90;;;;;;5119978;27;20051;-86
2021/12/19 07:24:16;;;;;;;25.27;3.40;;;9.00;99.90;;;;;;5137088;27;20133;-86
2021/12/19 07:26:41;;;;;;;24.85;3.47;;;8.90;99.90;;;;;;5120112;27;20496;-86
2021/12/19 07:29:07;;;;;;;20.08;3.33;;;8.90;99.90;;;;;;5102863;27;20070;-86
2021/12/19 07:31:36;;;;;;;19.98;3.55;;;8.90;99.90;;;;;;5119607;27;20366;-86
2021/12/19 07:34:03;;;;;;;15.02;3.78;;;8.90;99.90;;;;;;5120052;27;20043;-86
2021/12/19 07:36:36;;;;;;;19.45;3.92;;;8.90;99.90;;;;;;5120145;27;20039;-87
2021/12/19 07:39:12;;;;;;;15.30;3.05;;;9.00;99.90;;;;;;5121249;27;20079;-87
2021/12/19 07:41:40;;;;;;;15.15;3.05;;;8.90;99.90;;;;;;5120211;27;20050;-87
2021/12/19 07:44:08;;;;;;;16.88;3.28;;;8.90;99.90;;;;;;5136938;27;20035;-87
2021/12/19 07:46:34;;;;;;;27.40;4.10;;;8.90;99.90;;;;;;5119569;27;20192;-86
2021/12/19 07:48:59;;;;;;;24.80;3.88;;;8.90;99.90;;;;;;5136173;27;20582;-87
2021/12/19 07:51:25;;;;;;;14.73;3.28;;;9.10;99.90;;;;;;5102353;27;20051;-87
2021/12/19 07:53:53;;;;;;;26.27;3.75;;;8.90;99.90;;;;;;5119360;27;20130;-86
2021/12/19 07:56:19;;;;;;;16.67;3.53;;;9.00;99.90;;;;;;5119465;27;20039;-86
2021/12/19 07:58:44;;;;;;;23.67;3.72;;;9.10;99.90;;;;;;5119059;27;20043;-87
2021/12/19 08:01:10;;;;;;;29.27;3.53;;;9.10;99.90;;;;;;5136470;27;20093;-86
2021/12/19 08:03:37;;;;;;;21.88;3.83;;;9.10;99.90;;;;;;5119420;27;20046;-86
2021/12/19 08:06:03;;;;;;;17.77;3.38;;;8.90;99.90;;;;;;5101595;27;20072;-87
2021/12/19 08:08:32;;;;;;;22.35;3.47;;;8.90;99.90;;;;;;5136123;27;20053;-86
2021/12/19 08:13:42;;;;;;;21.38;3.58;;;9.00;99.90;;;;;;5107549;27;20047;-86
2021/12/19 08:16:08;;;;;;;20.60;3.58;;;9.20;99.90;;;;;;5119001;27;20043;-86
2021/12/19 08:18:35;;;;;;;24.00;3.33;;;9.10;99.90;;;;;;5118946;27;20493;-86
2021/12/19 08:21:00;;;;;;;14.50;3.40;;;9.00;99.90;;;;;;5135283;27;20039;-86
2021/12/19 08:23:28;;;;;;;21.80;3.20;;;9.00;99.90;;;;;;5119011;27;20047;-86
2021/12/19 08:25:54;;;;;;;20.63;3.83;;;9.10;99.90;;;;;;5119062;27;20450;-86
2021/12/19 08:28:20;;;;;;;16.02;3.53;;;9.20;99.90;;;;;;5118758;27;20139;-86
2021/12/19 08:30:46;;;;;;;17.92;3.58;;;9.20;99.90;;;;;;5118892;27;20130;-87
2021/12/19 08:33:14;;;;;;;18.00;3.95;;;9.10;99.90;;;;;;5118668;27;20057;-87
2021/12/19 08:35:39;;;;;;;19.83;3.45;;;9.10;99.90;;;;;;5136158;27;20043;-86
2021/12/19 08:38:05;;;;;;;18.52;3.60;;;9.10;99.90;;;;;;5118437;27;20047;-86
2021/12/19 08:40:32;;;;;;;18.73;4.20;;;9.20;99.90;;;;;;5118560;27;20031;-87
2021/12/19 08:42:58;;;;;;;21.63;4.57;;;9.20;99.90;;;;;;5118680;27;20047;-87
2021/12/19 08:45:24;;;;;;;25.92;3.78;;;9.10;99.90;;;;;;5118481;27;20124;-86
2021/12/19 08:47:50;;;;;;;25.60;3.58;;;9.10;99.90;;;;;;5135265;27;20035;-86
2021/12/19 08:50:18;;;;;;;25.40;4.47;;;9.10;99.90;;;;;;5117472;27;20098;-86
2021/12/19 08:52:44;;;;;;;20.30;4.07;;;9.00;99.90;;;;;;5135821;27;20178;-88
2021/12/19 08:55:11;;;;;;;21.60;3.53;;;9.00;99.90;;;;;;5117890;27;20092;-86
2021/12/19 08:57:38;;;;;;;19.55;3.75;;;8.90;99.90;;;;;;5135560;27;20395;-86
2021/12/19 09:00:10;;;;;;;26.80;3.95;;;9.00;99.90;;;;;;5117890;27;20493;-86
2021/12/19 09:02:38;;;;;;;20.85;3.92;;;8.90;99.90;;;;;;5135790;27;20047;-87
2021/12/19 09:05:05;;;;;;;17.60;3.85;;;9.00;99.90;;;;;;5117592;27;20043;-86
2021/12/19 09:07:31;;;;;;;20.75;3.63;;;9.10;99.90;;;;;;5134865;27;20054;-86
2021/12/19 09:09:59;;;;;;;22.75;3.78;;;9.30;99.90;;;;;;5134792;27;20042;-86
2021/12/19 09:12:25;;;;;;;22.38;4.25;;;9.30;99.90;;;;;;5101393;27;20061;-86
2021/12/19 09:14:51;;;;;;;18.85;3.30;;;9.30;99.90;;;;;;5135049;27;20043;-86
2021/12/19 09:17:17;;;;;;;25.38;3.65;;;9.40;99.90;;;;;;5116598;27;20509;-86
2021/12/19 09:19:42;;;;;;;20.38;3.53;;;9.30;99.90;;;;;;5117720;27;20155;-86
2021/12/19 09:22:08;;;;;;;17.13;4.15;;;9.20;99.90;;;;;;5134512;27;20043;-87
2021/12/19 09:24:35;;;;;;;29.88;3.88;;;9.10;99.90;;;;;;5135399;27;20081;-89
2021/12/19 09:27:03;;;;;;;24.63;4.28;;;9.10;99.90;;;;;;5117930;27;20039;-89
2021/12/19 09:29:29;;;;;;;23.88;3.70;;;9.10;99.90;;;;;;5118320;27;20039;-87
2021/12/19 09:31:56;;;;;;;25.38;3.72;;;9.00;99.90;;;;;;5117892;27;20406;-88
2021/12/19 09:34:23;;;;;;;24.98;3.90;;;9.00;99.90;;;;;;5117857;27;20443;-87
2021/12/19 09:36:49;;;;;;;26.65;3.78;;;9.10;99.90;;;;;;5117981;27;20035;-86
2021/12/19 09:39:15;;;;;;;26.10;3.55;;;9.10;99.90;;;;;;5118465;27;20103;-87
2021/12/19 09:41:44;;;;;;;23.85;3.67;;;9.10;99.90;;;;;;5118317;27;20065;-85
2021/12/19 09:44:13;;;;;;;21.33;3.63;;;9.10;99.90;;;;;;5134339;27;20058;-74
2021/12/19 09:46:42;;;;;;;23.85;4.00;;;9.10;99.90;;;;;;5134562;27;20039;-69
2021/12/19 09:49:11;;;;;;;23.80;4.10;;;9.30;99.90;;;;;;5136523;27;20051;-74
2021/12/19 09:51:38;;;;;;;20.20;3.75;;;9.40;99.90;;;;;;5121069;27;20054;-72
2021/12/19 09:54:09;;;;;;;21.58;3.45;;;9.30;99.90;;;;;;5135321;27;20424;-71
2021/12/19 09:56:35;;;;;;;27.38;4.13;;;9.30;99.90;;;;;;5135231;27;20051;-72
2021/12/19 09:59:15;;;;;;;26.40;5.07;;;9.30;99.90;;;;;;5133996;27;20046;-72
2021/12/19 10:01:41;;;;;;;24.33;4.38;;;9.30;99.90;;;;;;5133970;27;20058;-72
2021/12/19 10:04:29;;;;;;;26.50;4.03;;;9.40;99.90;;;;;;5133657;27;20493;-72
2021/12/19 10:07:05;;;;;;;25.50;3.83;;;9.30;99.90;;;;;;5133998;27;20043;-75
2021/12/19 10:09:31;;;;;;;29.77;4.10;;;9.50;99.90;;;;;;5133713;27;20095;-74
2021/12/19 10:12:11;;;;;;;27.85;4.47;;;9.50;99.90;;;;;;5133879;27;20051;-74
2021/12/19 10:14:38;;;;;;;18.58;3.40;;;9.40;99.90;;;;;;5136069;27;20489;-72
2021/12/19 10:17:16;;;;;;;23.33;3.80;;;9.30;99.90;;;;;;5136427;27;20122;-75
2021/12/19 10:19:53;;;;;;;17.65;2.85;;;9.30;99.90;;;;;;5117047;27;20482;-73
2021/12/19 10:22:44;;;;;;;23.60;3.35;;;9.30;99.90;;;;;;5134624;27;20394;-75
2021/12/19 10:25:18;;;;;;;15.40;3.13;;;9.30;99.90;;;;;;5168492;27;20047;-74
2021/12/19 10:27:49;;;;;;;22.33;3.58;;;9.30;99.90;;;;;;5130624;27;20043;-76
2021/12/19 10:30:23;;;;;;;12.50;2.92;;;9.30;99.90;;;;;;5117868;27;20535;-76
2021/12/19 10:32:53;;;;;;;19.77;2.95;;;9.20;99.90;;;;;;5131331;27;20047;-75
2021/12/19 10:35:22;;;;;;;22.27;2.80;;;9.20;99.90;;;;;;5132319;27;20094;-74
2021/12/19 10:37:48;;;;;;;14.88;2.17;;;9.30;99.90;;;;;;5133502;27;20054;-75
2021/12/19 10:40:15;;;;;;;20.05;2.13;;;9.30;99.90;;;;;;5133539;27;20051;-74
2021/12/19 10:42:54;;;;;;;14.98;2.55;;;9.30;99.90;;;;;;5133427;27;20054;-74
2021/12/19 10:45:34;;;;;;;16.20;1.98;;;9.20;99.90;;;;;;5133558;27;20135;-73
2021/12/19 10:48:24;;;;;;;20.33;2.72;;;9.00;99.90;;;;;;5101067;28;20047;-74
2021/12/19 10:50:51;;;;;;;17.05;2.72;;;9.00;99.90;;;;;;5132410;28;20506;-75
2021/12/19 10:53:18;;;;;;;12.05;2.08;;;9.00;99.90;;;;;;5133490;28;20401;-75
2021/12/19 10:55:47;;;;;;;15.35;2.33;;;9.10;99.90;;;;;;5099646;28;20078;-74
2021/12/19 10:58:36;;;;;;;12.45;1.90;;;9.10;99.90;;;;;;5133083;27;20043;-74
2021/12/19 11:01:30;;;;;;;16.63;2.05;;;9.20;99.90;;;;;;5116429;28;20100;-75
2021/12/19 11:04:07;;;;;;;11.77;2.00;;;9.20;99.90;;;;;;5132575;27;20146;-74
2021/12/19 11:06:42;;;;;;;;;;;9.30;99.90;;;;;;5116418;27;20055;-74
2021/12/19 11:09:15;;;;;;;14.70;2.00;;;9.50;99.90;;;;;;5133213;27;19926;-73
2021/12/19 11:11:43;;;;;;;17.23;2.13;;;9.50;99.90;;;;;;5133816;28;20047;-72
2021/12/19 11:14:43;;;;;;;19.17;2.28;;;9.30;99.90;;;;;;5133508;27;20054;-72
2021/12/19 11:17:12;;;;;;;20.02;2.42;;;9.30;99.90;;;;;;5099234;28;20493;-72
2021/12/19 11:19:39;;;;;;;23.88;2.47;;;9.30;99.90;;;;;;5134060;28;20110;-72
2021/12/19 11:22:06;;;;;;;14.38;2.03;;;9.20;99.90;;;;;;5132919;28;20039;-78
2021/12/19 11:24:31;;;;;;;21.17;2.47;;;9.20;99.90;;;;;;5133197;28;20046;-72
2021/12/19 11:27:00;;;;;;;23.65;3.13;;;9.30;99.90;;;;;;5115907;28;20047;-73
2021/12/19 11:29:27;;;;;;;18.58;2.70;;;9.20;99.90;;;;;;5132929;27;20050;-71
2021/12/19 11:31:59;;;;;;;22.35;3.13;;;9.30;99.90;;;;;;5134239;27;20401;-72
2021/12/19 11:34:36;;;;;;;15.25;2.20;;;9.30;99.90;;;;;;5132585;27;20401;-72
2021/12/19 11:37:45;;;;;;;19.00;2.60;;;9.40;99.90;;;;;;5133371;28;20069;-74
2021/12/19 11:40:19;;;;;;;20.67;3.75;;;9.40;99.90;;;;;;5104826;27;20070;-74
2021/12/19 11:42:45;;;;;;;20.50;3.60;;;9.30;99.90;;;;;;5119858;27;20394;-74
2021/12/19 11:48:00;;;;;;;24.10;3.20;;;9.40;99.90;;;;;;5136197;27;20051;-75
2021/12/19 11:50:27;;;;;;;18.08;2.58;;;9.40;99.90;;;;;;5118732;27;20118;-75
2021/12/19 11:52:58;;;;;;;18.35;2.58;;;9.50;99.90;;;;;;5136560;27;20062;-75
2021/12/19 11:55:26;;;;;;;16.63;2.83;;;9.40;99.90;;;;;;5134529;27;20148;-75
2021/12/19 11:58:12;;;;;;;24.23;2.90;;;9.40;99.90;;;;;;5120852;27;20055;-74
2021/12/19 12:01:08;;;;;;;21.75;3.55;;;9.40;99.90;;;;;;5135989;27;20058;-75
2021/12/19 12:03:43;;;;;;;26.92;3.42;;;9.50;99.90;;;;;;5135984;27;20043;-75
2021/12/19 12:06:24;;;;;;;29.38;4.15;;;9.50;99.90;;;;;;5136376;27;20107;-75
2021/12/19 12:09:21;;;;;;;21.75;2.92;;;9.50;99.90;;;;;;5136318;27;20078;-74
2021/12/19 12:12:10;;;;;;;31.08;3.47;;;9.40;99.90;;;;;;5162947;27;20051;-72
2021/12/19 12:14:53;;;;;;;26.27;3.13;;;9.50;99.90;;;;;;5136067;27;20055;-71
2021/12/19 12:17:23;;;;;;;23.98;2.88;;;9.60;99.90;;;;;;5137181;27;20167;-72
2021/12/19 12:19:52;;;;;;;21.90;3.05;;;9.50;99.90;;;;;;5136342;27;20438;-72
2021/12/19 12:22:25;;;;;;;24.05;3.50;;;9.50;99.90;;;;;;5135556;27;20082;-71
2021/12/19 12:25:09;;;;;;;30.65;2.97;;;9.60;99.90;;;;;;5135644;27;20104;-71
2021/12/19 12:27:36;;;;;;;27.23;3.47;;;9.50;99.90;;;;;;5135789;27;20047;-71
2021/12/19 12:30:04;;;;;;;23.38;3.08;;;9.50;99.90;;;;;;5118443;27;20059;-71
2021/12/19 12:32:30;;;;;;;22.63;2.60;;;9.50;99.90;;;;;;5137831;27;20095;-70
2021/12/19 12:34:56;;;;;;;20.17;2.75;;;9.50;99.90;;;;;;5135890;27;20435;-71
2021/12/19 12:37:22;;;;;;;26.70;3.13;;;9.50;99.90;;;;;;5135633;27;20658;-71
2021/12/19 12:39:47;;;;;;;30.42;3.90;;;9.50;99.90;;;;;;5135465;27;20235;-72
2021/12/19 12:42:16;;;;;;;24.38;3.60;;;9.50;99.90;;;;;;5118531;27;20050;-72
2021/12/19 12:44:43;;;;;;;21.50;3.53;;;9.50;99.90;;;;;;5135407;27;20066;-71
2021/12/19 12:47:09;;;;;;;25.50;2.72;;;9.60;99.90;;;;;;5118500;27;20143;-72
2021/12/19 12:49:35;;;;;;;24.08;3.40;;;9.60;99.90;;;;;;5135095;27;20517;-71
2021/12/19 12:52:06;;;;;;;23.70;3.80;;;9.50;99.90;;;;;;5134881;27;20069;-71
2021/12/19 12:54:38;;;;;;;30.80;3.22;;;9.50;99.90;;;;;;5134447;27;20050;-72
2021/12/19 12:57:08;;;;;;;30.55;3.58;;;9.40;99.90;;;;;;5115971;27;20489;-73
2021/12/19 12:59:38;;;;;;;25.58;3.78;;;9.40;99.90;;;;;;5135047;27;20062;-73
2021/12/19 13:02:17;;;;;;;26.75;3.72;;;9.40;99.90;;;;;;5135001;27;20483;-72
2021/12/19 13:04:45;;;;;;;27.67;4.07;;;9.50;99.90;;;;;;5138947;27;20078;-74
2021/12/19 13:07:12;;;;;;;22.27;3.15;;;9.60;99.90;;;;;;5135822;27;20043;-73
2021/12/19 13:09:44;;;;;;;27.98;3.70;;;9.70;99.90;;;;;;5134745;27;20119;-73
2021/12/19 13:12:18;;;;;;;25.90;2.83;;;9.60;99.90;;;;;;5135380;27;20047;-73
2021/12/19 13:14:46;;;;;;;28.02;3.33;;;9.40;99.90;;;;;;5117940;27;20490;-71
2021/12/19 13:17:18;;;;;;;21.33;3.22;;;9.40;99.90;;;;;;5134978;27;20043;-72
2021/12/19 13:19:46;;;;;;;17.17;2.50;;;9.40;99.90;;;;;;5134746;27;20051;-71
2021/12/19 13:22:37;;;;;;;20.20;3.05;;;9.50;99.90;;;;;;5117251;27;20527;-71
2021/12/19 13:25:27;;;;;;;25.77;3.03;;;9.50;99.90;;;;;;5135054;27;20054;-72
2021/12/19 13:27:56;;;;;;;23.33;3.63;;;9.50;99.90;;;;;;5134354;27;20054;-71
2021/12/19 13:30:31;;;;;;;34.72;3.90;;;9.40;99.90;;;;;;5134733;27;20046;-72
2021/12/19 13:33:14;;;;;;;30.47;4.43;;;9.50;99.90;;;;;;5117524;27;20054;-74
2021/12/19 13:35:50;;;;;;;18.02;2.70;;;9.60;99.90;;;;;;5134493;27;20545;-74
2021/12/19 13:38:22;;;;;;;21.37;2.77;;;9.50;99.90;;;;;;5117782;27;20051;-73
2021/12/19 13:40:51;;;;;;;17.48;3.30;;;9.60;99.90;;;;;;5134114;27;20471;-74
2021/12/19 13:43:22;;;;;;;21.83;3.03;;;9.60;99.90;;;;;;5134908;27;20047;-73
2021/12/19 13:45:52;;;;;;;26.45;3.13;;;9.50;99.90;;;;;;5168972;27;20043;-73
2021/12/19 13:48:19;;;;;;;18.25;2.58;;;9.50;99.90;;;;;;5134314;27;20122;-73
2021/12/19 13:50:53;;;;;;;25.67;2.92;;;9.50;99.90;;;;;;5133552;27;20517;-74
2021/12/19 13:53:19;;;;;;;21.83;3.42;;;9.50;99.90;;;;;;5134157;27;20039;-74
2021/12/19 13:55:58;;;;;;;20.65;2.90;;;9.60;99.90;;;;;;5117090;27;20050;-74
2021/12/19 13:58:28;;;;;;;14.60;2.90;;;9.60;99.90;;;;;;5116948;27;20098;-74
2021/12/19 14:00:56;;;;;;;29.40;4.00;;;9.50;99.90;;;;;;5134220;27;20083;-74
2021/12/19 14:04:17;;;;;;;25.67;3.15;;;9.50;99.90;;;;;;5116724;27;20054;-73
2021/12/19 14:06:44;;;;;;;18.92;2.72;;;9.50;99.90;;;;;;5054615;28;20059;-73
2021/12/19 14:09:16;;;;;;;21.52;3.22;;;9.60;99.90;;;;;;5122605;27;20066;-73
2021/12/19 14:11:45;;;;;;;21.33;2.85;;;9.30;99.90;;;;;;5116539;27;20047;-73
2021/12/19 14:14:32;;;;;;;25.40;2.72;;;9.20;99.90;;;;;;5133807;27;20094;-73